Time;durP1;ratioP1;P1;durP2;ratioP2;P2;SDS_P1;SDS_P2;PMS_P1;PMS_P2;Temp;Humidity;BMP_temperature;BMP_pressure;BME280_temperature;BME280_humidity;BME280_pressure;Samples;Min_cycle;Max_cycle;Signal;HPM_P1;HPM_P2
2023/03/09 00:00:37;;;;;;;5.38;3.10;;;;;;;4.69;59.91;94212.06;5001172;28;20033;-83
2023/03/09 00:03:04;;;;;;;6.57;2.50;;;;;;;3.21;60.53;93974.56;5011389;28;20056;-82
2023/03/09 00:05:31;;;;;;;4.68;3.05;;;;;;;4.03;60.28;94068.25;5010065;28;20036;-83
2023/03/09 00:08:00;;;;;;;5.15;2.80;;;;;;;3.94;59.99;94086.91;5060261;28;20483;-83
2023/03/09 00:10:26;;;;;;;5.20;3.08;;;;;;;3.76;60.31;94072.72;5007184;28;20131;-83
2023/03/09 00:12:52;;;;;;;4.60;3.00;;;;;;;3.29;60.74;93979.19;5020728;28;20204;-83
2023/03/09 00:15:18;;;;;;;5.63;3.42;;;;;;;3.55;60.96;94039.88;5025823;28;20029;-83
2023/03/09 00:17:46;;;;;;;4.85;2.97;;;;;;;3.27;60.76;93999.00;5024562;28;20498;-83
2023/03/09 00:20:17;;;;;;;4.03;2.90;;;;;;;4.36;60.59;94169.72;5023938;28;20049;-83
2023/03/09 00:22:49;;;;;;;5.05;3.03;;;;;;;3.49;60.43;94018.94;5018040;28;20040;-83
2023/03/09 00:25:17;;;;;;;4.80;2.35;;;;;;;3.70;61.52;94063.69;5009017;28;20041;-83
2023/03/09 00:27:45;;;;;;;4.03;2.50;;;;;;;3.98;61.87;94085.78;5019250;28;20051;-83
2023/03/09 00:30:14;;;;;;;4.10;2.35;;;;;;;3.06;61.73;93935.34;5021204;28;20578;-83
2023/03/09 00:32:40;;;;;;;6.70;2.55;;;;;;;4.13;61.20;94093.34;5025905;28;20478;-83
2023/03/09 00:35:13;;;;;;;4.97;2.47;;;;;;;4.39;62.14;94169.50;5047261;28;20064;-83
2023/03/09 00:37:39;;;;;;;6.63;4.18;;;;;;;3.66;62.11;94064.00;5010229;28;20040;-83
2023/03/09 00:40:09;;;;;;;5.75;3.60;;;;;;;3.36;61.80;93994.06;5015260;28;20044;-83
2023/03/09 00:42:39;;;;;;;6.33;2.90;;;;;;;4.01;61.45;94110.41;5024339;28;20079;-83
2023/03/09 00:45:05;;;;;;;4.88;2.95;;;;;;;3.32;61.57;94012.34;5007576;28;20678;-83
2023/03/09 00:47:33;;;;;;;5.60;2.92;;;;;;;3.12;61.89;93958.03;5021902;28;20032;-83
2023/03/09 00:50:04;;;;;;;4.97;2.58;;;;;;;2.98;62.05;93914.53;5031910;28;20048;-83
2023/03/09 00:52:30;;;;;;;5.93;3.00;;;;;;;3.78;63.15;94046.00;5010915;28;20052;-83
2023/03/09 00:54:56;;;;;;;4.70;2.80;;;;;;;3.49;63.09;94011.22;5011840;28;20095;-83
2023/03/09 00:57:23;;;;;;;5.43;2.92;;;;;;;4.38;62.29;94147.28;4998293;28;20025;-83
2023/03/09 00:59:51;;;;;;;5.63;3.25;;;;;;;3.54;63.15;94032.28;5012206;28;20060;-83
2023/03/09 01:02:18;;;;;;;4.03;3.08;;;;;;;3.02;61.83;93912.56;4992028;28;20018;-83
2023/03/09 01:04:47;;;;;;;4.95;3.05;;;;;;;3.50;61.96;93995.69;5012049;28;20044;-83
2023/03/09 01:07:22;;;;;;;4.72;3.10;;;;;;;3.02;62.23;93920.28;5026470;28;20594;-83
2023/03/09 01:09:49;;;;;;;4.78;3.10;;;;;;;3.53;62.81;94023.72;5014361;28;20507;-84
2023/03/09 01:12:17;;;;;;;5.65;3.00;;;;;;;3.57;62.67;94007.19;5011381;28;20049;-83
2023/03/09 01:14:53;;;;;;;5.38;2.90;;;;;;;2.99;62.18;93905.91;5005551;28;20139;-83
2023/03/09 01:17:19;;;;;;;3.90;2.78;;;;;;;3.56;61.59;94005.53;5023741;28;20036;-83
2023/03/09 01:19:46;;;;;;;6.13;3.13;;;;;;;3.52;62.15;93993.03;5038642;28;20051;-84
2023/03/09 01:22:12;;;;;;;4.10;2.45;;;;;;;2.96;62.34;93918.94;5012668;28;20032;-84
2023/03/09 01:24:40;;;;;;;6.18;3.10;;;;;;;3.45;63.09;94020.03;5002766;28;20549;-83
2023/03/09 01:27:19;;;;;;;8.75;4.93;;;;;;;3.80;63.35;94045.91;5016075;28;20045;-84
2023/03/09 01:29:44;;;;;;;5.82;3.90;;;;;;;2.93;62.91;93914.03;5006489;28;20108;-83
2023/03/09 01:32:10;;;;;;;5.88;3.58;;;;;;;4.37;62.67;94127.63;5010856;28;20198;-83
2023/03/09 01:34:39;;;;;;;13.52;3.42;;;;;;;3.48;62.91;93995.00;5007685;28;20093;-84
2023/03/09 01:37:13;;;;;;;5.88;3.17;;;;;;;3.27;63.21;93963.06;5008627;28;20096;-84
2023/03/09 01:39:39;;;;;;;6.30;3.10;;;;;;;2.73;63.46;93860.66;5020237;28;20070;-84
2023/03/09 01:42:05;;;;;;;6.57;3.05;;;;;;;3.19;63.72;93935.34;5012885;28;20512;-83
2023/03/09 01:44:34;;;;;;;6.13;3.33;;;;;;;3.52;63.67;93993.84;5007054;28;20068;-83
2023/03/09 01:47:03;;;;;;;4.55;3.22;;;;;;;2.97;63.01;93884.66;5034043;28;20055;-83
2023/03/09 01:49:32;;;;;;;5.30;3.05;;;;;;;3.49;64.25;93970.94;5018463;28;20589;-83
2023/03/09 01:52:04;;;;;;;4.63;2.95;;;;;;;4.38;64.16;94093.28;5012509;28;20071;-84
2023/03/09 01:54:55;;;;;;;5.45;2.90;;;;;;;4.10;64.57;94073.00;5046648;28;20120;-84
2023/03/09 01:57:28;;;;;;;4.80;2.83;;;;;;;4.17;64.02;94064.75;5016558;28;20491;-82
2023/03/09 01:59:58;;;;;;;5.53;3.15;;;;;;;3.27;64.62;93947.66;5039893;28;20045;-84
2023/03/09 02:02:36;;;;;;;5.47;2.65;;;;;;;3.56;63.55;93963.63;5025586;28;20054;-83
2023/03/09 02:05:04;;;;;;;4.35;2.60;;;;;;;2.86;63.31;93851.22;5012436;28;20032;-84
2023/03/09 02:07:34;;;;;;;5.45;2.83;;;;;;;3.36;63.79;93952.97;5019391;28;20021;-84
2023/03/09 02:10:30;;;;;;;3.72;2.40;;;;;;;3.33;64.15;93962.66;5036467;28;20482;-82
2023/03/09 02:12:58;;;;;;;4.63;2.60;;;;;;;3.56;63.59;93969.59;5008578;28;20056;-84
2023/03/09 02:15:24;;;;;;;4.10;2.75;;;;;;;3.45;63.72;93996.94;5021006;28;20083;-84
2023/03/09 02:17:51;;;;;;;4.22;2.70;;;;;;;3.27;63.73;93970.78;5004975;28;20083;-83
2023/03/09 02:20:22;;;;;;;4.65;2.63;;;;;;;3.98;64.04;94108.91;4994085;28;20041;-83
2023/03/09 02:22:51;;;;;;;5.75;2.83;;;;;;;3.16;64.22;93980.94;5031414;28;20049;-83
2023/03/09 02:25:40;;;;;;;5.18;3.15;;;;;;;4.02;63.90;94105.19;5015815;28;20040;-83
2023/03/09 02:28:18;;;;;;;3.85;2.45;;;;;;;3.61;64.09;94066.06;5010495;28;20522;-84
2023/03/09 02:30:46;;;;;;;5.80;2.92;;;;;;;3.18;64.39;94008.16;4997273;28;20059;-83
2023/03/09 02:33:26;;;;;;;4.50;2.90;;;;;;;3.13;64.71;94011.00;4997954;28;20427;-83
2023/03/09 02:36:04;;;;;;;8.65;2.80;;;;;;;3.02;64.94;93990.38;5024346;28;20017;-84
2023/03/09 02:38:39;;;;;;;5.88;3.03;;;;;;;2.74;64.28;93962.34;5018269;28;20041;-84
2023/03/09 02:41:08;;;;;;;4.72;2.78;;;;;;;2.18;64.34;93891.59;5033499;28;20072;-84
2023/03/09 02:43:37;;;;;;;4.47;2.90;;;;;;;2.36;64.98;93934.88;5008652;28;20036;-83
2023/03/09 02:46:03;;;;;;;5.13;2.80;;;;;;;2.93;65.13;94003.00;5020966;28;20116;-84
2023/03/09 02:48:31;;;;;;;8.55;3.10;;;;;;;3.73;66.33;94129.44;5007615;28;20526;-83
2023/03/09 02:50:57;;;;;;;7.13;3.35;;;;;;;3.01;66.22;94013.56;5010097;28;20414;-83
2023/03/09 02:53:27;;;;;;;4.93;2.80;;;;;;;2.95;65.96;94008.84;5023239;28;20051;-84
2023/03/09 02:55:52;;;;;;;4.45;2.60;;;;;;;3.01;65.32;94004.13;5001212;28;20024;-83
2023/03/09 02:58:20;;;;;;;5.68;2.50;;;;;;;2.19;65.28;93867.59;5018607;28;20179;-84
2023/03/09 03:00:46;;;;;;;4.75;2.70;;;;;;;2.27;65.59;93873.97;5036004;28;20083;-83
2023/03/09 03:03:24;;;;;;;6.60;2.47;;;;;;;2.73;65.74;93943.56;5031093;28;20450;-83
2023/03/09 03:05:52;;;;;;;5.25;2.85;;;;;;;3.03;65.95;93994.56;5002787;28;20554;-83
2023/03/09 03:08:24;;;;;;;4.50;3.10;;;;;;;3.16;66.36;94057.94;5002593;28;20025;-84
2023/03/09 03:10:52;;;;;;;6.80;4.80;;;;;;;3.03;66.09;94007.41;5022125;28;20044;-83
2023/03/09 03:13:19;;;;;;;6.50;3.75;;;;;;;2.88;66.26;93980.19;5006034;28;20037;-84
2023/03/09 03:15:45;;;;;;;6.10;4.10;;;;;;;2.72;66.46;93959.84;4988312;28;20075;-83
2023/03/09 03:18:10;;;;;;;7.22;3.58;;;;;;;2.98;65.81;94014.59;5030664;28;20571;-83
2023/03/09 03:20:39;;;;;;;5.28;3.15;;;;;;;2.47;65.67;93917.88;5017917;28;20025;-82
2023/03/09 03:23:05;;;;;;;7.70;3.55;;;;;;;2.62;65.74;93961.41;5033732;28;20032;-84
2023/03/09 03:25:33;;;;;;;5.45;3.90;;;;;;;3.54;66.85;94068.22;5033105;28;20404;-82
2023/03/09 03:27:59;;;;;;;5.72;3.05;;;;;;;3.21;66.84;93997.66;5032344;28;20104;-83
2023/03/09 03:30:31;;;;;;;4.35;2.97;;;;;;;2.71;66.72;93919.75;5016711;28;20132;-83
2023/03/09 03:33:00;;;;;;;6.32;3.13;;;;;;;3.07;66.51;93952.41;5033132;28;20037;-83
2023/03/09 03:35:31;;;;;;;4.55;2.55;;;;;;;3.10;66.76;93989.88;5017115;28;20098;-83
2023/03/09 03:37:56;;;;;;;5.15;2.60;;;;;;;3.07;66.53;93988.31;5022888;28;20051;-83
2023/03/09 03:40:23;;;;;;;5.38;2.90;;;;;;;4.16;66.25;94165.94;4982886;28;20029;-83
2023/03/09 03:42:52;;;;;;;6.43;3.25;;;;;;;2.99;65.84;94011.09;4997899;28;20061;-83
2023/03/09 03:45:18;;;;;;;5.63;3.65;;;;;;;2.86;65.98;93964.09;4999492;28;20041;-83
2023/03/09 03:47:43;;;;;;;7.07;4.40;;;;;;;3.43;65.63;94024.47;4995868;28;20239;-82
2023/03/09 03:50:12;;;;;;;7.50;2.70;;;;;;;3.33;66.28;94003.72;4997900;28;20451;-83
2023/03/09 03:52:41;;;;;;;4.70;2.53;;;;;;;2.93;66.06;93949.94;4999455;28;20053;-83
2023/03/09 03:55:07;;;;;;;5.90;4.03;;;;;;;3.18;66.21;93979.91;5015143;28;20037;-82
2023/03/09 03:57:33;;;;;;;5.25;3.20;;;;;;;3.88;64.61;94061.63;4980844;28;20049;-83
2023/03/09 04:00:10;;;;;;;5.55;2.75;;;;;;;4.20;64.08;94099.69;5015511;28;20385;-83
2023/03/09 04:02:36;;;;;;;7.22;3.05;;;;;;;3.46;63.29;93939.53;4983436;28;20049;-82
2023/03/09 04:05:02;;;;;;;6.80;4.32;;;;;;;4.45;63.19;94091.09;4999636;28;20652;-82
2023/03/09 04:07:33;;;;;;;13.23;5.28;;;;;;;3.97;63.42;94001.88;4997623;28;20029;-82
2023/03/09 04:09:59;;;;;;;8.85;3.78;;;;;;;4.00;62.91;93999.09;4983503;28;20077;-82
2023/03/09 04:12:25;;;;;;;9.30;4.90;;;;;;;3.24;63.03;93881.13;4997197;28;20059;-82
2023/03/09 04:14:51;;;;;;;92.35;44.78;;;;;;;3.77;63.19;93967.28;4996782;28;20037;-83
2023/03/09 04:17:17;;;;;;;8.48;4.18;;;;;;;4.09;62.27;94001.94;4997658;28;20048;-82
2023/03/09 04:19:46;;;;;;;5.50;2.80;;;;;;;4.96;62.53;94136.41;5014922;28;20041;-82
2023/03/09 04:22:11;;;;;;;5.10;2.75;;;;;;;4.29;62.54;94045.09;4999667;28;20472;-82
2023/03/09 04:24:37;;;;;;;7.40;2.95;;;;;;;4.34;63.23;94037.84;4998545;28;20036;-82
2023/03/09 04:27:03;;;;;;;4.75;2.78;;;;;;;3.40;62.68;93897.13;5013820;28;20060;-82
2023/03/09 04:29:29;;;;;;;5.35;2.90;;;;;;;3.31;62.85;93887.47;4998008;28;20033;-82
2023/03/09 04:31:55;;;;;;;4.88;3.10;;;;;;;3.92;62.48;93967.16;5015010;28;20440;-82
2023/03/09 04:34:26;;;;;;;7.95;3.20;;;;;;;4.86;62.62;94124.19;4980888;28;20029;-81
2023/03/09 04:36:55;;;;;;;5.05;3.22;;;;;;;3.95;62.69;93978.03;5014691;28;20028;-82
2023/03/09 04:39:26;;;;;;;6.00;3.00;;;;;;;4.31;63.31;94043.22;4998212;28;20029;-81
2023/03/09 04:42:00;;;;;;;5.93;3.25;;;;;;;3.81;62.73;93975.59;4995588;28;20033;-82
2023/03/09 04:44:28;;;;;;;4.43;3.10;;;;;;;4.28;63.58;94063.19;4982492;28;20034;-82
2023/03/09 04:46:57;;;;;;;4.85;3.22;;;;;;;4.23;64.62;94059.19;4993149;28;20598;-82
2023/03/09 04:49:27;;;;;;;5.72;3.50;;;;;;;3.76;64.38;93973.38;4998817;28;20025;-81
2023/03/09 04:51:55;;;;;;;28.27;12.07;;;;;;;4.13;64.46;94057.38;4979678;28;20033;-82
2023/03/09 04:54:23;;;;;;;30.27;11.88;;;;;;;3.16;64.84;93906.50;4996407;28;20036;-82
2023/03/09 04:56:49;;;;;;;30.63;13.40;;;;;;;3.34;65.24;93954.84;5028735;28;20495;-82
2023/03/09 04:59:15;;;;;;;25.88;15.50;;;;;;;4.50;64.94;94103.66;5005031;28;20037;-81
2023/03/09 05:01:44;;;;;;;20.63;10.02;;;;;;;3.38;65.11;93911.81;5014203;28;20108;-82
2023/03/09 05:04:13;;;;;;;17.08;8.75;;;;;;;3.80;64.69;93981.69;5007743;28;20489;-82
2023/03/09 05:06:44;;;;;;;17.77;10.18;;;;;;;3.60;65.04;93954.00;5012409;28;20507;-82
2023/03/09 05:09:10;;;;;;;9.77;5.82;;;;;;;4.15;65.33;94017.78;5012248;28;20131;-82
2023/03/09 05:11:36;;;;;;;10.25;5.53;;;;;;;3.46;64.69;93912.09;5018222;28;20139;-82
2023/03/09 05:14:02;;;;;;;43.90;17.45;;;;;;;3.11;64.45;93868.31;5016679;28;20044;-82
2023/03/09 05:16:37;;;;;;;41.78;16.55;;;;;;;4.41;64.74;94059.63;5025047;28;20115;-82
2023/03/09 05:19:03;;;;;;;25.75;11.07;;;;;;;4.44;64.94;94074.84;5023783;28;20041;-82
2023/03/09 05:21:29;;;;;;;27.80;12.73;;;;;;;3.36;64.82;93885.41;5034480;28;20449;-82
2023/03/09 05:24:01;;;;;;;25.35;11.70;;;;;;;3.98;64.51;93987.25;5012424;28;20013;-81
2023/03/09 05:26:28;;;;;;;21.55;10.23;;;;;;;4.08;64.93;93966.91;5021692;28;20132;-81
2023/03/09 05:28:54;;;;;;;27.17;14.02;;;;;;;3.70;64.56;93906.97;5029289;28;20032;-81
2023/03/09 05:31:22;;;;;;;20.58;11.43;;;;;;;5.00;64.40;94101.78;5018596;28;20044;-81
2023/03/09 05:33:48;;;;;;;18.85;9.75;;;;;;;3.92;64.53;93919.13;5047033;28;20464;-81
2023/03/09 05:36:18;;;;;;;9.52;6.30;;;;;;;4.75;64.71;94052.09;5027409;28;20037;-82
2023/03/09 05:38:49;;;;;;;11.23;7.47;;;;;;;4.44;64.46;93997.69;5017746;28;20460;-81
2023/03/09 05:41:18;;;;;;;7.75;3.97;;;;;;;4.39;64.47;93986.91;5010858;28;20039;-83
2023/03/09 05:43:51;;;;;;;11.95;5.80;;;;;;;4.59;64.72;94036.09;5022810;28;20037;-82
2023/03/09 05:46:18;;;;;;;23.02;14.45;;;;;;;4.23;64.72;93969.22;5015177;28;20025;-82
2023/03/09 05:48:48;;;;;;;20.15;12.63;;;;;;;4.06;64.48;93920.72;5006396;28;20046;-81
2023/03/09 05:51:15;;;;;;;34.63;20.58;;;;;;;5.22;63.08;94098.50;4998304;28;20037;-82
2023/03/09 05:53:41;;;;;;;17.38;10.80;;;;;;;4.62;64.30;93989.56;5024000;28;20059;-81
2023/03/09 05:56:07;;;;;;;23.60;10.52;;;;;;;4.87;63.27;93996.31;5006825;28;20048;-82
2023/03/09 05:58:35;;;;;;;28.95;10.98;;;;;;;5.24;63.67;94061.41;5000267;28;20104;-82
2023/03/09 06:01:04;;;;;;;50.60;16.60;;;;;;;4.95;64.12;94011.22;5004844;28;20032;-82
2023/03/09 06:03:30;;;;;;;66.72;26.70;;;;;;;4.97;63.64;93987.00;5017007;28;20453;-82
2023/03/09 06:06:04;;;;;;;39.53;16.98;;;;;;;5.77;63.20;94079.75;5036094;28;20036;-82
2023/03/09 06:08:29;;;;;;;41.80;19.13;;;;;;;5.55;62.55;94023.84;5030024;28;20040;-82
2023/03/09 06:10:58;;;;;;;37.47;17.80;;;;;;;4.97;61.99;93906.41;5063246;28;20087;-82
2023/03/09 06:13:24;;;;;;;22.77;13.60;;;;;;;5.15;61.54;93930.72;5012281;28;20049;-82
2023/03/09 06:15:49;;;;;;;26.95;14.98;;;;;;;5.75;61.22;93995.75;5010516;28;20041;-82
2023/03/09 06:18:16;;;;;;;30.83;15.45;;;;;;;6.51;60.83;94099.91;4997124;28;20497;-82
2023/03/09 06:20:41;;;;;;;50.22;22.45;;;;;;;6.54;58.55;94016.28;5025801;28;20044;-82
2023/03/09 06:23:07;;;;;;;36.25;17.75;;;;;;;6.64;58.12;93999.13;5027582;28;20496;-82
2023/03/09 06:25:35;;;;;;;38.15;16.17;;;;;;;7.39;57.78;94073.91;5045975;28;20052;-82
2023/03/09 06:28:01;;;;;;;42.15;18.52;;;;;;;7.46;57.33;93999.25;5001391;28;20029;-83
2023/03/09 06:30:28;;;;;;;40.05;20.45;;;;;;;7.72;56.25;94006.63;5019851;28;20466;-82
2023/03/09 06:32:57;;;;;;;30.75;15.45;;;;;;;8.44;53.49;94028.91;5042406;28;20087;-83
2023/03/09 06:35:23;;;;;;;21.10;9.73;;;;;;;8.50;52.39;94011.09;5010500;28;20254;-81
2023/03/09 06:37:49;;;;;;;27.92;13.98;;;;;;;8.81;52.44;93974.75;5021918;28;20021;-82
2023/03/09 06:40:15;;;;;;;33.58;18.00;;;;;;;9.30;51.60;94048.06;5061185;28;20059;-83
2023/03/09 06:42:41;;;;;;;19.55;10.88;;;;;;;9.25;50.01;94054.59;5022668;28;20028;-83
2023/03/09 06:45:07;;;;;;;25.75;12.43;;;;;;;10.03;49.18;94060.50;5007390;28;20045;-83
2023/03/09 06:47:33;;;;;;;23.02;12.57;;;;;;;10.15;49.18;94054.16;5017394;28;20033;-82
2023/03/09 06:49:59;;;;;;;19.88;11.63;;;;;;;9.82;49.31;94048.50;5036290;28;20522;-83
2023/03/09 06:52:25;;;;;;;23.42;13.27;;;;;;;9.75;49.35;94031.91;5023497;28;20052;-83
2023/03/09 06:54:53;;;;;;;21.48;13.10;;;;;;;9.96;49.27;94059.41;5059017;28;20372;-83
2023/03/09 06:57:19;;;;;;;22.73;13.45;;;;;;;9.18;48.40;93909.25;5000413;28;20029;-83
2023/03/09 06:59:44;;;;;;;20.75;13.60;;;;;;;10.76;48.31;94125.53;4997064;28;20137;-80
2023/03/09 07:02:13;;;;;;;22.52;13.50;;;;;;;10.80;47.46;94082.69;5035403;28;20031;-80
2023/03/09 07:04:39;;;;;;;13.23;8.98;;;;;;;9.79;48.22;93986.56;5035914;28;20066;-83
2023/03/09 07:07:05;;;;;;;13.93;7.65;;;;;;;10.98;47.54;94113.06;5021513;28;20073;-78
2023/03/09 07:09:31;;;;;;;12.88;8.32;;;;;;;11.61;46.93;94106.03;5035633;28;20501;-75
2023/03/09 07:11:58;;;;;;;11.27;7.10;;;;;;;11.69;44.68;93988.22;5045745;28;20060;-81
2023/03/09 07:14:24;;;;;;;13.90;7.97;;;;;;;12.41;43.29;94014.78;5015821;28;20025;-81
2023/03/09 07:16:53;;;;;;;13.65;7.30;;;;;;;13.00;42.53;94019.16;5047441;28;20029;-82
2023/03/09 07:19:18;;;;;;;11.48;6.07;;;;;;;13.09;40.97;93997.31;5051982;28;20532;-81
2023/03/09 07:21:44;;;;;;;14.77;6.32;;;;;;;12.99;41.07;94015.75;5049414;28;20136;-80
2023/03/09 07:24:10;;;;;;;10.95;6.05;;;;;;;12.65;41.34;93980.19;5031397;28;20108;-81
2023/03/09 07:26:35;;;;;;;10.95;5.57;;;;;;;13.08;40.77;94027.00;5015609;28;20059;-81
2023/03/09 07:29:01;;;;;;;6.93;4.00;;;;;;;14.13;38.79;94106.28;5044852;28;20108;-76
2023/03/09 07:31:28;;;;;;;5.75;3.72;;;;;;;13.44;38.82;94058.03;5030715;28;20444;-81
2023/03/09 07:34:01;;;;;;;9.70;3.70;;;;;;;14.12;38.98;94091.56;5014294;28;20120;-82
2023/03/09 07:36:36;;;;;;;7.30;4.25;;;;;;;12.63;39.60;93913.56;4980078;28;20141;-83
2023/03/09 07:39:09;;;;;;;10.68;4.82;;;;;;;12.75;39.48;93961.78;5000900;28;20034;-83
2023/03/09 07:41:38;;;;;;;7.88;5.53;;;;;;;12.48;40.99;94010.59;4982372;28;20030;-83
2023/03/09 07:44:08;;;;;;;9.80;4.63;;;;;;;12.34;40.72;93982.53;5012491;28;20043;-82
2023/03/09 07:46:35;;;;;;;9.97;4.90;;;;;;;12.25;41.08;94004.28;5016967;28;20028;-83
2023/03/09 07:49:01;;;;;;;7.57;4.20;;;;;;;11.82;41.38;93980.81;4999119;28;20040;-82
2023/03/09 07:51:26;;;;;;;7.45;4.32;;;;;;;12.67;41.41;94105.88;5030913;28;20021;-83
2023/03/09 07:53:52;;;;;;;8.30;6.32;;;;;;;12.19;41.44;94017.94;5017279;28;20450;-82
2023/03/09 07:56:22;;;;;;;12.50;5.75;;;;;;;12.12;41.12;93981.31;5017931;28;20546;-82
2023/03/09 07:58:50;;;;;;;5.13;3.08;;;;;;;12.32;40.06;94025.34;5001306;28;20495;-82
2023/03/09 08:01:19;;;;;;;5.15;3.00;;;;;;;12.02;40.28;93988.41;4998893;28;20036;-82
2023/03/09 08:03:45;;;;;;;6.70;3.25;;;;;;;11.85;41.17;94035.19;5002249;28;20479;-82
2023/03/09 08:06:13;;;;;;;6.93;3.83;;;;;;;11.82;41.20;94019.84;5018601;28;20393;-82
2023/03/09 08:08:42;;;;;;;10.88;4.00;;;;;;;12.34;41.31;94081.50;5051965;28;20071;-83
2023/03/09 08:11:08;;;;;;;6.78;3.13;;;;;;;11.74;41.80;93972.97;5032659;28;20063;-83
2023/03/09 08:13:36;;;;;;;9.15;3.45;;;;;;;11.77;41.29;93974.44;5001780;28;20029;-81
2023/03/09 08:16:04;;;;;;;6.38;3.40;;;;;;;11.40;41.63;93932.13;5018728;28;20044;-82
2023/03/09 08:18:30;;;;;;;10.02;3.53;;;;;;;11.34;41.81;93937.94;5018089;28;20033;-82
2023/03/09 08:21:12;;;;;;;6.70;4.10;;;;;;;11.91;41.80;94041.56;5018101;28;20021;-82
2023/03/09 08:23:40;;;;;;;6.57;3.83;;;;;;;11.77;41.88;93997.84;5019742;28;20040;-82
2023/03/09 08:26:12;;;;;;;7.45;3.65;;;;;;;11.80;41.99;94010.56;5032767;28;20029;-82
2023/03/09 08:28:39;;;;;;;9.50;3.50;;;;;;;11.92;41.80;94029.34;5018497;28;20036;-82
2023/03/09 08:31:08;;;;;;;4.78;2.70;;;;;;;11.93;42.24;94065.66;5002169;28;20021;-82
2023/03/09 08:33:39;;;;;;;8.23;4.53;;;;;;;11.22;42.32;93970.34;5018054;28;20071;-82
2023/03/09 08:36:15;;;;;;;9.93;5.07;;;;;;;11.65;42.25;94030.31;5034123;28;20033;-83
2023/03/09 08:38:43;;;;;;;6.05;3.15;;;;;;;11.14;42.27;93931.28;5002051;28;20083;-82
2023/03/09 08:41:12;;;;;;;5.55;3.33;;;;;;;11.11;42.17;93903.81;5017718;28;20029;-82
2023/03/09 08:43:40;;;;;;;5.72;3.10;;;;;;;11.21;42.78;93983.50;5034357;28;20438;-82
2023/03/09 08:46:08;;;;;;;6.00;3.53;;;;;;;12.15;42.55;94105.16;5017830;28;20032;-82
2023/03/09 08:48:33;;;;;;;6.05;3.15;;;;;;;11.06;42.50;93991.00;5000734;28;20098;-81
2023/03/09 08:51:00;;;;;;;7.53;4.20;;;;;;;11.91;42.78;94062.38;5034148;28;20446;-82
2023/03/09 08:53:26;;;;;;;5.82;3.00;;;;;;;11.38;43.02;93956.66;5018014;28;20040;-82
2023/03/09 08:55:52;;;;;;;7.53;2.63;;;;;;;11.69;42.12;93988.22;5034289;28;20024;-82
2023/03/09 08:58:18;;;;;;;4.45;2.92;;;;;;;11.54;42.68;93964.56;5033603;28;20041;-82
2023/03/09 09:00:46;;;;;;;6.28;2.70;;;;;;;11.13;42.49;93948.66;5017465;28;20098;-82
2023/03/09 09:03:13;;;;;;;10.43;3.20;;;;;;;11.67;43.21;93997.13;5018017;28;20028;-81
2023/03/09 09:05:40;;;;;;;7.15;2.80;;;;;;;11.89;42.83;94020.06;5017832;28;20036;-82
2023/03/09 09:08:05;;;;;;;7.05;3.40;;;;;;;11.51;43.57;93990.88;5033598;28;20043;-82
2023/03/09 09:10:34;;;;;;;7.45;2.90;;;;;;;11.26;44.26;93966.47;5033459;28;20025;-82
2023/03/09 09:13:04;;;;;;;6.93;3.13;;;;;;;11.74;44.13;94026.78;5016971;28;20128;-82
2023/03/09 09:15:29;;;;;;;6.90;2.95;;;;;;;11.41;44.30;93977.16;5017364;28;20029;-82
2023/03/09 09:17:55;;;;;;;7.68;3.13;;;;;;;11.54;45.11;94060.78;5033569;28;20466;-82
2023/03/09 09:20:26;;;;;;;6.18;3.10;;;;;;;11.24;45.02;93991.00;5051157;28;20021;-82
2023/03/09 09:22:53;;;;;;;5.78;3.00;;;;;;;10.84;43.98;93867.59;5050957;28;20107;-82
2023/03/09 09:25:19;;;;;;;4.05;2.53;;;;;;;11.47;43.77;93963.53;4997069;28;20025;-82
2023/03/09 09:27:45;;;;;;;6.15;3.00;;;;;;;11.25;44.33;93931.03;5030434;28;20033;-82
2023/03/09 09:30:11;;;;;;;6.68;3.25;;;;;;;10.87;44.93;93885.47;5016989;28;20064;-82
2023/03/09 09:32:40;;;;;;;4.07;3.00;;;;;;;11.80;45.00;94005.34;5014730;28;20052;-82
2023/03/09 09:35:05;;;;;;;5.15;3.10;;;;;;;11.94;44.73;93997.00;5001132;28;20479;-82
2023/03/09 09:37:31;;;;;;;6.53;3.67;;;;;;;11.90;44.06;93968.84;5050837;28;20047;-82
2023/03/09 09:39:58;;;;;;;6.13;2.83;;;;;;;12.13;43.60;93979.53;5016868;28;20032;-80
2023/03/09 09:42:29;;;;;;;6.43;3.28;;;;;;;11.80;43.51;93932.50;5033432;28;20039;-82
2023/03/09 09:44:58;;;;;;;;;;;;;;;12.62;43.29;94026.56;5001303;28;20536;-83
2023/03/09 09:47:29;;;;;;;6.78;3.20;;;;;;;12.05;42.59;93942.06;5017192;28;20070;-82
2023/03/09 09:49:56;;;;;;;6.03;3.23;;;;;;;11.93;42.93;93874.84;5001005;28;20033;-82
2023/03/09 09:52:28;;;;;;;5.97;3.20;;;;;;;12.80;42.00;93972.53;5016990;28;20033;-81
2023/03/09 09:55:03;;;;;;;8.95;3.40;;;;;;;12.74;41.92;93949.72;5015740;28;20442;-81
2023/03/09 09:58:05;;;;;;;5.68;3.70;;;;;;;12.47;41.36;93880.47;5033634;28;20484;-81
2023/03/09 10:00:37;;;;;;;9.23;3.20;;;;;;;13.36;41.28;94012.69;5018996;28;20040;-80
2023/03/09 10:03:05;;;;;;;4.75;3.17;;;;;;;13.66;41.34;94004.38;5033881;28;20121;-80
2023/03/09 10:05:34;;;;;;;5.55;2.50;;;;;;;13.51;40.30;93915.50;5050459;28;20409;-80
2023/03/09 10:08:20;;;;;;;5.32;2.75;;;;;;;13.37;40.20;93911.75;5016351;28;20071;-80
2023/03/09 10:10:45;;;;;;;4.57;2.40;;;;;;;13.39;40.13;93900.19;5036184;28;20029;-81
2023/03/09 10:13:14;;;;;;;3.72;2.40;;;;;;;13.77;39.91;93933.53;5016466;28;20128;-80
2023/03/09 10:15:40;;;;;;;4.63;2.50;;;;;;;13.48;40.29;93881.91;5051369;28;20510;-80
2023/03/09 10:18:11;;;;;;;3.63;2.30;;;;;;;13.31;38.81;93850.66;5000103;28;20048;-80
2023/03/09 10:20:38;;;;;;;8.60;2.92;;;;;;;13.04;39.48;93824.91;5016751;28;20473;-80
2023/03/09 10:23:17;;;;;;;5.13;2.40;;;;;;;13.24;40.23;93809.75;5016231;28;20063;-80
2023/03/09 10:25:43;;;;;;;4.85;2.40;;;;;;;13.63;39.03;93851.53;5017121;28;20037;-80
2023/03/09 10:28:14;;;;;;;4.40;2.15;;;;;;;13.86;39.12;93885.53;4999955;28;20438;-80
2023/03/09 10:30:48;;;;;;;5.45;2.17;;;;;;;13.94;39.10;93861.22;5033334;28;20040;-80
2023/03/09 10:33:23;;;;;;;4.60;2.20;;;;;;;14.10;39.31;93868.97;5016799;28;20048;-81
2023/03/09 10:36:06;;;;;;;3.78;2.30;;;;;;;14.47;38.96;93898.78;5051092;28;20088;-81
2023/03/09 10:38:31;;;;;;;5.63;2.45;;;;;;;14.14;38.62;93862.41;5017545;28;20526;-80
2023/03/09 10:40:57;;;;;;;4.95;2.35;;;;;;;14.82;38.87;93943.66;5032594;28;20025;-80
2023/03/09 10:43:30;;;;;;;4.57;2.67;;;;;;;14.19;38.59;93865.31;5016545;28;20037;-80
2023/03/09 10:46:08;;;;;;;4.47;2.30;;;;;;;13.82;38.59;93783.28;5033164;28;20021;-80
2023/03/09 10:48:34;;;;;;;3.60;2.47;;;;;;;14.25;38.97;93858.59;5035001;28;20056;-80
2023/03/09 10:51:04;;;;;;;5.93;2.28;;;;;;;14.46;38.25;93844.91;5032512;28;20029;-80
2023/03/09 10:53:44;;;;;;;3.40;1.93;;;;;;;15.09;38.74;93911.75;5033126;28;20051;-81
2023/03/09 10:56:26;;;;;;;4.93;1.83;;;;;;;14.85;37.87;93823.06;5016590;28;20025;-81
2023/03/09 10:59:07;;;;;;;5.30;2.20;;;;;;;15.39;37.72;93909.22;5016742;28;20064;-80
2023/03/09 11:01:36;;;;;;;4.53;2.05;;;;;;;14.25;38.12;93712.31;5032708;28;20029;-80
2023/03/09 11:04:23;;;;;;;6.03;2.47;;;;;;;15.52;37.61;93892.91;4999183;28;20491;-80
2023/03/09 11:06:59;;;;;;;5.72;2.30;;;;;;;14.53;37.22;93738.72;5036151;28;20035;-80
2023/03/09 11:09:42;;;;;;;7.00;3.90;;;;;;;15.07;37.13;93801.28;5019838;28;20594;-80
2023/03/09 11:12:09;;;;;;;4.65;1.90;;;;;;;15.88;36.62;93893.03;5019646;28;20580;-80
2023/03/09 11:14:59;;;;;;;2.92;1.45;;;;;;;15.39;36.52;93788.84;5019330;28;20067;-80
2023/03/09 11:17:42;;;;;;;2.87;1.70;;;;;;;15.36;37.15;93774.31;5022298;28;20025;-80
2023/03/09 11:20:28;;;;;;;4.28;2.50;;;;;;;16.35;36.45;93877.84;5004645;28;20043;-80
2023/03/09 11:23:31;;;;;;;3.63;2.13;;;;;;;16.55;35.45;93860.56;5035805;28;20033;-80
2023/03/09 11:26:56;;;;;;;6.80;4.18;;;;;;;16.87;35.45;93864.50;5036285;28;20060;-81
2023/03/09 11:29:42;;;;;;;4.93;2.72;;;;;;;17.02;35.15;93855.75;4952483;28;20043;-81
2023/03/09 11:32:10;;;;;;;7.07;3.72;;;;;;;16.42;34.44;93732.78;4956065;28;20030;-80
2023/03/09 11:34:36;;;;;;;4.15;2.13;;;;;;;16.96;34.53;93805.66;5015723;28;20120;-80
2023/03/09 11:37:27;;;;;;;2.25;1.30;;;;;;;16.79;33.92;93733.50;5002586;28;20123;-81
2023/03/09 11:39:59;;;;;;;7.47;3.20;;;;;;;17.56;34.28;93836.75;5020293;28;20484;-80
2023/03/09 11:42:41;;;;;;;5.82;2.30;;;;;;;17.05;33.89;93726.81;5035059;28;20031;-80
2023/03/09 11:45:29;;;;;;;3.58;1.50;;;;;;;17.82;33.67;93813.25;5035111;28;20418;-79